createdAt,value
2019-01-08T00:01:10.401Z,7.20
2019-01-08T00:03:36.551Z,7.10
2019-01-08T00:06:02.788Z,7.10
2019-01-08T00:08:28.980Z,7.00
2019-01-08T00:10:55.211Z,7.00
2019-01-08T00:13:21.423Z,7.00
2019-01-08T00:15:47.600Z,7.00
2019-01-08T00:18:13.819Z,6.90
2019-01-08T00:20:41.913Z,6.90
2019-01-08T00:23:08.113Z,6.90
2019-01-08T00:25:34.350Z,6.90
2019-01-08T00:28:00.524Z,6.90
2019-01-08T00:30:26.761Z,6.90
2019-01-08T00:32:53.101Z,6.90
2019-01-08T00:35:19.333Z,6.90
2019-01-08T00:37:45.519Z,7.00
2019-01-08T00:40:12.037Z,7.00
2019-01-08T00:42:38.276Z,7.00
2019-01-08T00:45:04.691Z,7.00
2019-01-08T00:47:31.002Z,7.00
2019-01-08T00:49:57.192Z,7.10
2019-01-08T00:52:23.410Z,7.10
2019-01-08T00:54:49.995Z,7.10
2019-01-08T00:57:16.186Z,7.10
2019-01-08T00:59:42.409Z,7.10
2019-01-08T01:02:08.674Z,7.20
2019-01-08T01:04:34.861Z,7.20
2019-01-08T01:07:01.060Z,7.20
2019-01-08T01:09:27.320Z,7.20
2019-01-08T01:11:53.535Z,7.20
2019-01-08T01:14:19.696Z,7.30
2019-01-08T01:16:45.908Z,7.30
2019-01-08T01:19:12.100Z,7.30
2019-01-08T01:21:38.737Z,7.30
2019-01-08T01:24:04.983Z,7.30
2019-01-08T01:26:31.170Z,7.30
2019-01-08T01:29:00.237Z,7.30
2019-01-08T01:31:26.301Z,7.30
2019-01-08T01:33:52.472Z,7.30
2019-01-08T01:36:18.974Z,7.30
2019-01-08T01:38:45.152Z,7.30
2019-01-08T01:41:11.328Z,7.30
2019-01-08T01:43:37.609Z,7.20
2019-01-08T01:46:04.170Z,7.20
2019-01-08T01:48:30.562Z,7.10
2019-01-08T01:50:56.758Z,7.10
2019-01-08T01:53:22.960Z,7.00
2019-01-08T01:55:49.141Z,7.00
2019-01-08T01:58:15.431Z,6.90
2019-01-08T02:00:41.642Z,6.90
2019-01-08T02:03:07.844Z,6.80
2019-01-08T02:05:34.100Z,6.80
2019-01-08T02:08:00.587Z,6.80
2019-01-08T02:10:26.759Z,6.70
2019-01-08T02:12:52.976Z,6.70
2019-01-08T02:15:19.422Z,6.70
2019-01-08T02:17:45.649Z,6.70
2019-01-08T02:20:11.958Z,6.60
2019-01-08T02:22:38.125Z,6.60
2019-01-08T02:25:04.431Z,6.60
2019-01-08T02:27:30.652Z,6.60
2019-01-08T02:29:56.934Z,6.60
2019-01-08T02:32:23.127Z,6.60
2019-01-08T02:34:49.426Z,6.60
2019-01-08T02:37:15.598Z,6.60
2019-01-08T02:39:41.933Z,6.60
2019-01-08T02:42:08.163Z,6.60
2019-01-08T02:44:34.366Z,6.60
2019-01-08T02:47:00.647Z,6.60
2019-01-08T02:49:26.947Z,6.60
2019-01-08T02:51:53.186Z,6.60
2019-01-08T02:54:19.824Z,6.60
2019-01-08T02:56:46.071Z,6.60
2019-01-08T02:59:12.298Z,6.50
2019-01-08T03:01:38.595Z,6.50
2019-01-08T03:04:04.795Z,6.50
2019-01-08T03:06:31.400Z,6.50
2019-01-08T03:08:58.035Z,6.50
2019-01-08T03:11:24.244Z,6.50
2019-01-08T03:13:50.430Z,6.50
2019-01-08T03:16:16.710Z,6.50
2019-01-08T03:18:42.889Z,6.50
2019-01-08T03:21:09.119Z,6.50
2019-01-08T03:23:35.425Z,6.50
2019-01-08T03:26:01.674Z,6.50
2019-01-08T03:28:28.063Z,6.50
2019-01-08T03:30:54.336Z,6.50
2019-01-08T03:33:20.515Z,6.50
2019-01-08T03:35:46.849Z,6.50
2019-01-08T03:38:13.047Z,6.40
2019-01-08T03:40:39.303Z,6.40
2019-01-08T03:43:05.501Z,6.40
2019-01-08T03:45:32.064Z,6.40
2019-01-08T03:47:58.260Z,6.40
2019-01-08T03:50:24.468Z,6.30
2019-01-08T03:52:57.896Z,6.40
2019-01-08T03:55:24.117Z,6.30
2019-01-08T03:57:50.346Z,6.40
2019-01-08T04:00:16.612Z,6.30
2019-01-08T04:02:43.948Z,6.30
2019-01-08T04:05:10.186Z,6.30
2019-01-08T04:07:36.665Z,6.40
2019-01-08T04:10:06.236Z,6.40
2019-01-08T04:12:32.755Z,6.40
2019-01-08T04:14:58.936Z,6.40
2019-01-08T04:17:25.319Z,6.40
2019-01-08T04:19:51.510Z,6.50
2019-01-08T04:22:17.736Z,6.50
2019-01-08T04:24:45.837Z,6.50
2019-01-08T04:27:12.377Z,6.50
2019-01-08T04:29:38.563Z,6.50
2019-01-08T04:32:04.804Z,6.50
2019-01-08T04:34:31.108Z,6.60
2019-01-08T04:36:57.328Z,6.60
2019-01-08T04:39:24.945Z,6.60
2019-01-08T04:41:51.408Z,6.60
2019-01-08T04:44:17.583Z,6.60
2019-01-08T04:46:43.790Z,6.60
2019-01-08T04:49:09.981Z,6.70
2019-01-08T04:51:36.233Z,6.70
2019-01-08T04:54:02.391Z,6.70
2019-01-08T04:56:28.660Z,6.70
2019-01-08T04:58:54.844Z,6.70
2019-01-08T05:01:21.064Z,6.70
2019-01-08T05:03:47.371Z,6.80
2019-01-08T05:06:13.529Z,6.80
2019-01-08T05:08:39.791Z,6.80
2019-01-08T05:11:05.970Z,6.80
2019-01-08T05:13:32.175Z,6.80
2019-01-08T05:15:58.356Z,6.80
2019-01-08T05:18:24.672Z,6.80
2019-01-08T05:20:50.825Z,6.80
2019-01-08T05:23:17.033Z,6.80
2019-01-08T05:25:43.229Z,6.80
2019-01-08T05:28:10.811Z,6.70
2019-01-08T05:30:37.017Z,6.70
2019-01-08T05:33:03.267Z,6.70
2019-01-08T05:35:29.712Z,6.70
2019-01-08T05:37:55.984Z,6.70
2019-01-08T05:40:22.158Z,6.70
2019-01-08T05:42:48.372Z,6.70
2019-01-08T05:45:14.541Z,6.70
2019-01-08T05:47:40.778Z,6.70
2019-01-08T05:50:06.945Z,6.80
2019-01-08T05:52:33.191Z,6.80
2019-01-08T05:54:59.927Z,6.80
2019-01-08T05:57:26.139Z,6.90
2019-01-08T05:59:52.303Z,6.90
2019-01-08T06:02:18.511Z,6.90
2019-01-08T06:04:44.834Z,6.90
2019-01-08T06:07:11.047Z,7.00
2019-01-08T06:09:37.300Z,7.00
2019-01-08T06:12:03.521Z,7.00
2019-01-08T06:14:29.705Z,7.00
2019-01-08T06:16:55.873Z,7.10
2019-01-08T06:19:22.079Z,7.10
2019-01-08T06:21:48.305Z,7.10
2019-01-08T06:24:14.512Z,7.10
2019-01-08T06:26:40.683Z,7.10
2019-01-08T06:29:06.935Z,7.10
2019-01-08T06:31:33.113Z,7.10
2019-01-08T06:33:59.320Z,7.20
2019-01-08T06:36:26.348Z,7.10
2019-01-08T06:38:52.598Z,7.10
2019-01-08T06:41:18.763Z,7.10
2019-01-08T06:43:44.983Z,7.10
2019-01-08T06:46:11.147Z,7.10
2019-01-08T06:48:37.342Z,7.10
2019-01-08T06:51:03.536Z,7.10
2019-01-08T06:53:29.721Z,7.00
2019-01-08T06:55:55.936Z,7.00
2019-01-08T06:58:22.498Z,7.00
2019-01-08T07:00:48.673Z,7.00
2019-01-08T07:03:14.904Z,7.00
2019-01-08T07:05:41.080Z,6.90
2019-01-08T07:08:07.277Z,6.90
2019-01-08T07:10:33.598Z,6.90
2019-01-08T07:12:59.817Z,6.90
2019-01-08T07:15:26.037Z,6.90
2019-01-08T07:17:52.197Z,6.90
2019-01-08T07:20:18.434Z,6.90
2019-01-08T07:22:44.605Z,6.90
2019-01-08T07:25:10.828Z,6.90
2019-01-08T07:27:37.015Z,6.90
2019-01-08T07:30:03.925Z,6.80
2019-01-08T07:32:30.087Z,6.80
2019-01-08T07:34:56.320Z,6.90
2019-01-08T07:37:22.486Z,6.90
2019-01-08T07:39:48.918Z,6.90
2019-01-08T07:42:15.097Z,6.90
2019-01-08T07:44:41.326Z,7.00
2019-01-08T07:47:07.537Z,7.10
2019-01-08T07:49:33.883Z,7.10
2019-01-08T07:52:00.107Z,7.10
2019-01-08T07:54:26.318Z,7.20
2019-01-08T07:56:52.551Z,7.20
2019-01-08T07:59:18.755Z,7.30
2019-01-08T08:01:44.940Z,7.40
2019-01-08T08:04:11.199Z,7.40
2019-01-08T08:06:37.383Z,7.40
2019-01-08T08:09:05.349Z,7.50
2019-01-08T08:11:31.602Z,7.50
2019-01-08T08:13:57.805Z,7.60
2019-01-08T08:16:24.001Z,7.60
2019-01-08T08:18:50.602Z,7.60
2019-01-08T08:21:17.103Z,7.70
2019-01-08T08:23:43.272Z,7.70
2019-01-08T08:26:09.479Z,7.70
2019-01-08T08:28:35.667Z,7.80
2019-01-08T08:31:01.894Z,7.80
2019-01-08T08:33:28.076Z,7.80
2019-01-08T08:35:54.290Z,7.90
2019-01-08T08:38:20.472Z,7.90
2019-01-08T08:40:46.755Z,7.90
2019-01-08T08:43:13.587Z,8.00
2019-01-08T08:45:39.894Z,8.00
2019-01-08T08:48:06.071Z,8.00
2019-01-08T08:50:32.254Z,8.00
2019-01-08T08:52:58.519Z,8.00
2019-01-08T08:55:24.707Z,8.00
2019-01-08T08:57:50.887Z,8.10
2019-01-08T09:00:17.233Z,8.10
2019-01-08T09:02:43.398Z,8.10
2019-01-08T09:05:09.656Z,8.10
2019-01-08T09:07:35.817Z,8.10
2019-01-08T09:10:03.253Z,8.20
2019-01-08T09:12:29.428Z,8.20
2019-01-08T09:14:55.984Z,8.20
2019-01-08T09:17:22.146Z,8.20
2019-01-08T09:19:48.389Z,8.20
2019-01-08T09:22:14.620Z,8.20
2019-01-08T09:24:40.888Z,8.20
2019-01-08T09:27:07.046Z,8.20
2019-01-08T09:29:33.222Z,8.20
2019-01-08T09:31:59.431Z,8.20
2019-01-08T09:34:25.922Z,8.20
2019-01-08T09:36:52.116Z,8.20
2019-01-08T09:39:18.400Z,8.20
2019-01-08T09:41:44.628Z,8.20
2019-01-08T09:44:10.807Z,8.20
2019-01-08T09:46:37.026Z,8.10
2019-01-08T09:49:03.198Z,8.10
2019-01-08T09:51:29.426Z,8.10
2019-01-08T09:53:55.620Z,8.00
2019-01-08T09:56:21.812Z,8.00
2019-01-08T09:58:48.352Z,8.00
2019-01-08T10:01:14.553Z,8.00
2019-01-08T10:03:40.931Z,8.10
2019-01-08T10:06:07.142Z,8.20
2019-01-08T10:08:33.308Z,8.20
2019-01-08T10:11:19.385Z,8.30
2019-01-08T10:13:45.561Z,8.30
2019-01-08T10:16:11.765Z,8.40
2019-01-08T10:18:37.939Z,8.40
2019-01-08T10:21:04.188Z,8.40
2019-01-08T10:23:30.341Z,8.50
2019-01-08T10:25:56.532Z,8.50
2019-01-08T10:28:22.714Z,8.50
2019-01-08T10:30:48.891Z,8.50
2019-01-08T10:33:15.090Z,8.60
2019-01-08T10:35:41.254Z,8.70
2019-01-08T10:38:07.489Z,8.80
2019-01-08T10:40:33.650Z,8.90
2019-01-08T10:42:59.867Z,9.00
2019-01-08T10:45:26.046Z,9.00
2019-01-08T10:47:52.244Z,9.00
2019-01-08T10:50:18.418Z,9.00
2019-01-08T10:52:44.608Z,9.00
2019-01-08T10:55:10.772Z,9.00
2019-01-08T10:57:36.983Z,8.90
2019-01-08T11:00:07.265Z,8.90
2019-01-08T11:02:33.465Z,8.80
2019-01-08T11:04:59.732Z,8.70
2019-01-08T11:07:25.948Z,8.70
2019-01-08T11:09:52.312Z,8.60
2019-01-08T11:12:18.527Z,8.50
2019-01-08T11:14:44.739Z,8.50
2019-01-08T11:17:11.203Z,8.40
2019-01-08T11:19:37.367Z,8.40
2019-01-08T11:22:03.576Z,8.30
2019-01-08T11:24:29.767Z,8.30
2019-01-08T11:26:55.981Z,8.30
2019-01-08T11:29:22.158Z,8.30
2019-01-08T11:31:48.917Z,8.30
2019-01-08T11:34:15.503Z,8.30
2019-01-08T11:36:41.931Z,8.30
2019-01-08T11:39:08.104Z,8.30
2019-01-08T11:41:34.320Z,8.40
2019-01-08T11:44:00.547Z,8.50
2019-01-08T11:46:26.697Z,8.60
2019-01-08T11:48:52.901Z,8.60
2019-01-08T11:51:19.460Z,8.70
2019-01-08T11:53:45.965Z,8.70
2019-01-08T11:56:12.136Z,8.80
2019-01-08T11:58:38.360Z,8.80
2019-01-08T12:01:04.518Z,8.70
2019-01-08T12:03:31.102Z,8.70
2019-01-08T12:05:57.503Z,8.60
2019-01-08T12:08:23.784Z,8.50
2019-01-08T12:10:49.967Z,8.40
2019-01-08T12:13:16.219Z,8.30
2019-01-08T12:15:42.378Z,8.10
2019-01-08T12:18:08.923Z,8.00
2019-01-08T12:20:35.203Z,7.90
2019-01-08T12:23:01.414Z,7.80
2019-01-08T12:25:29.512Z,7.70
2019-01-08T12:27:55.728Z,7.60
2019-01-08T12:30:21.942Z,7.60
2019-01-08T12:32:48.455Z,7.50
2019-01-08T12:35:14.583Z,7.50
2019-01-08T12:37:42.127Z,7.50
2019-01-08T12:40:08.487Z,7.40
2019-01-08T12:42:34.736Z,7.40
2019-01-08T12:45:00.932Z,7.40
2019-01-08T12:47:27.197Z,7.40
2019-01-08T12:49:54.469Z,7.40
2019-01-08T12:52:20.827Z,7.40
2019-01-08T12:54:47.031Z,7.40
2019-01-08T12:57:13.218Z,7.40
2019-01-08T12:59:39.424Z,7.40
2019-01-08T13:02:14.270Z,7.40
2019-01-08T13:04:33.872Z,7.40
2019-01-08T13:07:00.039Z,7.30
2019-01-08T13:09:26.280Z,7.30
2019-01-08T13:11:52.469Z,7.20
2019-01-08T13:14:18.669Z,7.20
2019-01-08T13:16:44.840Z,7.10
2019-01-08T13:19:11.332Z,7.00
2019-01-08T13:21:37.572Z,7.00
2019-01-08T13:24:05.730Z,6.90
2019-01-08T13:26:31.883Z,6.90
2019-01-08T13:28:58.064Z,6.90
2019-01-08T13:31:24.264Z,6.80
2019-01-08T13:33:50.595Z,6.80
2019-01-08T13:36:16.771Z,6.70
2019-01-08T13:38:43.002Z,6.70
2019-01-08T13:41:09.256Z,6.70
2019-01-08T13:43:35.557Z,6.70
2019-01-08T13:46:02.066Z,6.70
2019-01-08T13:48:28.629Z,6.60
2019-01-08T13:50:56.700Z,6.70
2019-01-08T13:53:22.934Z,6.70
2019-01-08T13:55:49.104Z,6.70
2019-01-08T13:58:15.317Z,6.70
2019-01-08T14:00:41.508Z,6.70
2019-01-08T14:03:07.727Z,6.70
2019-01-08T14:05:33.886Z,6.80
2019-01-08T14:08:00.137Z,6.80
2019-01-08T14:10:26.321Z,6.80
2019-01-08T14:12:52.520Z,6.90
2019-01-08T14:15:19.802Z,6.90
2019-01-08T14:17:46.180Z,7.00
2019-01-08T14:20:12.553Z,7.00
2019-01-08T14:22:38.792Z,7.10
2019-01-08T14:25:05.022Z,7.10
2019-01-08T14:27:31.259Z,7.20
2019-01-08T14:29:57.474Z,7.20
2019-01-08T14:32:23.625Z,7.30
2019-01-08T14:34:49.852Z,7.30
2019-01-08T14:37:16.175Z,7.40
2019-01-08T14:39:42.932Z,7.40
2019-01-08T14:42:09.121Z,7.50
2019-01-08T14:44:35.356Z,7.50
2019-01-08T14:47:02.523Z,7.60
2019-01-08T14:49:28.764Z,7.60
2019-01-08T14:51:54.933Z,7.70
2019-01-08T14:54:21.160Z,7.70
2019-01-08T14:56:47.393Z,7.70
2019-01-08T14:59:13.688Z,7.80
2019-01-08T15:01:39.852Z,7.80
2019-01-08T15:04:06.074Z,7.80
2019-01-08T15:06:32.252Z,7.90
2019-01-08T15:08:58.754Z,7.80
2019-01-08T15:11:24.920Z,7.90
2019-01-08T15:13:51.122Z,7.80
2019-01-08T15:16:17.305Z,7.80
2019-01-08T15:18:43.513Z,7.80
2019-01-08T15:21:09.708Z,7.80
2019-01-08T15:23:35.928Z,7.80
2019-01-08T15:26:02.123Z,7.80
2019-01-08T15:28:28.381Z,7.80
2019-01-08T15:30:54.616Z,7.80
2019-01-08T15:33:21.336Z,7.70
2019-01-08T15:35:47.545Z,7.70
2019-01-08T15:38:13.879Z,7.70
2019-01-08T15:40:40.111Z,7.70
2019-01-08T15:43:06.338Z,7.60
2019-01-08T15:45:32.522Z,7.60
2019-01-08T15:48:13.634Z,7.60
2019-01-08T15:50:51.455Z,7.60
2019-01-08T15:53:27.833Z,7.50
2019-01-08T15:55:59.798Z,7.50
2019-01-08T15:58:32.463Z,7.40
2019-01-08T16:00:58.920Z,7.40
2019-01-08T16:03:25.120Z,7.40
2019-01-08T16:05:51.314Z,7.40
2019-01-08T16:08:17.518Z,7.40
2019-01-08T16:10:43.701Z,7.40
2019-01-08T16:13:09.958Z,7.30
2019-01-08T16:15:36.160Z,7.30
2019-01-08T16:18:02.399Z,7.30
2019-01-08T16:20:28.845Z,7.30
2019-01-08T16:22:54.996Z,7.30
2019-01-08T16:25:21.171Z,7.30
2019-01-08T16:27:48.777Z,7.30
2019-01-08T16:30:15.004Z,7.30
2019-01-08T16:32:41.256Z,7.30
2019-01-08T16:35:07.390Z,7.30
2019-01-08T16:37:33.576Z,7.30
2019-01-08T16:40:00.049Z,7.30
2019-01-08T16:42:26.248Z,7.30
2019-01-08T16:44:52.425Z,7.30
2019-01-08T16:47:18.921Z,7.30
2019-01-08T16:49:45.249Z,7.30
2019-01-08T16:52:11.459Z,7.30
2019-01-08T16:54:37.822Z,7.30
2019-01-08T16:57:05.636Z,7.30
2019-01-08T16:59:31.978Z,7.30
2019-01-08T17:01:58.411Z,7.30
2019-01-08T17:04:24.582Z,7.30
2019-01-08T17:06:50.841Z,7.30
2019-01-08T17:09:17.022Z,7.30
2019-01-08T17:11:43.363Z,7.30
2019-01-08T17:14:09.577Z,7.30
2019-01-08T17:16:35.812Z,7.30
2019-01-08T17:19:02.036Z,7.30
2019-01-08T17:21:28.267Z,7.30
2019-01-08T17:23:54.761Z,7.20
2019-01-08T17:26:21.113Z,7.20
2019-01-08T17:28:50.279Z,7.20
2019-01-08T17:31:16.815Z,7.20
2019-01-08T17:33:43.023Z,7.20
2019-01-08T17:36:11.166Z,7.20
2019-01-08T17:38:37.367Z,7.20
2019-01-08T17:41:03.887Z,7.20
2019-01-08T17:43:33.711Z,7.20
2019-01-08T17:45:58.208Z,7.20
2019-01-08T17:48:24.690Z,7.20
2019-01-08T17:50:50.873Z,7.20
2019-01-08T17:53:17.408Z,7.10
2019-01-08T17:55:43.586Z,7.10
2019-01-08T17:58:37.152Z,7.10
2019-01-08T18:01:08.644Z,7.10
2019-01-08T18:03:42.514Z,7.10
2019-01-08T18:06:03.256Z,7.10
2019-01-08T18:08:29.840Z,7.10
2019-01-08T18:10:56.031Z,7.10
2019-01-08T18:13:22.280Z,7.00
2019-01-08T18:15:48.559Z,7.00
2019-01-08T18:18:14.801Z,7.00
2019-01-08T18:20:40.976Z,6.90
2019-01-08T18:23:07.257Z,6.80
2019-01-08T18:25:33.510Z,6.80
2019-01-08T18:28:00.057Z,6.70
2019-01-08T18:30:26.235Z,6.60
2019-01-08T18:32:52.495Z,6.60
2019-01-08T18:35:18.970Z,6.50
2019-01-08T18:37:45.299Z,6.50
2019-01-08T18:40:13.579Z,6.50
2019-01-08T18:42:39.878Z,6.40
2019-01-08T18:45:06.697Z,6.40
2019-01-08T18:47:32.916Z,6.40
2019-01-08T18:49:59.087Z,6.30
2019-01-08T18:52:25.319Z,6.30
2019-01-08T18:54:51.526Z,6.30
2019-01-08T18:57:18.091Z,6.30
2019-01-08T18:59:44.283Z,6.30
2019-01-08T19:02:10.467Z,6.30
2019-01-08T19:04:36.785Z,6.30
2019-01-08T19:07:03.297Z,6.20
2019-01-08T19:09:31.345Z,6.20
2019-01-08T19:11:58.420Z,6.20
2019-01-08T19:14:31.962Z,6.10
2019-01-08T19:16:58.157Z,6.10
2019-01-08T19:19:24.391Z,6.10
2019-01-08T19:21:50.856Z,6.10
2019-01-08T19:24:17.169Z,6.00
2019-01-08T19:26:43.362Z,6.00
2019-01-08T19:29:09.672Z,6.10
2019-01-08T19:31:36.202Z,6.00
2019-01-08T19:34:09.086Z,6.00
2019-01-08T19:36:30.638Z,6.00
2019-01-08T19:38:57.454Z,6.00
2019-01-08T19:41:23.662Z,6.00
2019-01-08T19:43:50.237Z,6.00
2019-01-08T19:46:16.371Z,6.10
2019-01-08T19:48:42.674Z,6.10
2019-01-08T19:51:09.160Z,6.10
2019-01-08T19:53:35.472Z,6.10
2019-01-08T19:56:01.645Z,6.00
2019-01-08T19:58:29.598Z,6.00
2019-01-08T20:00:56.370Z,6.00
2019-01-08T20:03:22.979Z,5.90
2019-01-08T20:05:49.186Z,5.90
2019-01-08T20:08:15.392Z,5.80
2019-01-08T20:10:41.686Z,5.80
2019-01-08T20:13:07.907Z,5.80
2019-01-08T20:15:34.439Z,5.80
2019-01-08T20:18:00.668Z,5.80
2019-01-08T20:20:27.084Z,5.80
2019-01-08T20:22:53.251Z,5.70
2019-01-08T20:25:19.458Z,5.70
2019-01-08T20:27:45.648Z,5.70
2019-01-08T20:30:11.875Z,5.70
2019-01-08T20:32:38.055Z,5.70
2019-01-08T20:35:04.317Z,5.70
2019-01-08T20:37:30.510Z,5.60
2019-01-08T20:39:56.745Z,5.60
2019-01-08T20:42:22.949Z,5.50
2019-01-08T20:44:49.178Z,5.50
2019-01-08T20:47:15.355Z,5.50
2019-01-08T20:49:41.784Z,5.40
2019-01-08T20:52:08.000Z,5.40
2019-01-08T20:54:34.545Z,5.40
2019-01-08T20:57:08.612Z,5.30
2019-01-08T20:59:28.820Z,5.30
2019-01-08T21:01:55.016Z,5.30
2019-01-08T21:04:21.271Z,5.30
2019-01-08T21:06:47.451Z,5.20
2019-01-08T21:09:13.704Z,5.20
2019-01-08T21:11:40.209Z,5.20
2019-01-08T21:14:06.420Z,5.20
2019-01-08T21:16:32.632Z,5.20
2019-01-08T21:18:59.214Z,5.20
2019-01-08T21:21:25.366Z,5.10
2019-01-08T21:23:51.643Z,5.10
2019-01-08T21:26:17.887Z,5.10
2019-01-08T21:28:44.112Z,5.10
2019-01-08T21:31:10.681Z,5.10
2019-01-08T21:33:37.244Z,5.10
2019-01-08T21:36:03.691Z,5.10
2019-01-08T21:38:29.918Z,5.10
2019-01-08T21:40:56.163Z,5.10
2019-01-08T21:43:22.415Z,5.10
2019-01-08T21:45:48.824Z,5.10
2019-01-08T21:48:15.022Z,5.10
2019-01-08T21:50:41.233Z,5.10
2019-01-08T21:53:07.401Z,5.00
2019-01-08T21:55:33.651Z,5.00
2019-01-08T21:57:59.844Z,4.90
2019-01-08T22:00:26.067Z,4.90
2019-01-08T22:02:52.345Z,4.90
2019-01-08T22:05:18.603Z,4.80
2019-01-08T22:07:44.779Z,4.80
2019-01-08T22:10:11.468Z,4.70
2019-01-08T22:12:38.041Z,4.70
2019-01-08T22:15:05.262Z,4.70
2019-01-08T22:17:31.445Z,4.70
2019-01-08T22:19:57.680Z,4.70
2019-01-08T22:22:23.869Z,4.60
2019-01-08T22:24:50.107Z,4.60
2019-01-08T22:27:16.305Z,4.60
2019-01-08T22:29:44.690Z,4.60
2019-01-08T22:32:10.905Z,4.50
2019-01-08T22:34:37.150Z,4.50
2019-01-08T22:37:03.323Z,4.50
2019-01-08T22:39:29.535Z,4.50
2019-01-08T22:41:55.722Z,4.50
2019-01-08T22:44:21.937Z,4.50
2019-01-08T22:46:48.109Z,4.50
2019-01-08T22:49:14.622Z,4.50
2019-01-08T22:51:40.794Z,4.50
2019-01-08T22:54:07.154Z,4.40
2019-01-08T22:56:34.263Z,4.40
2019-01-08T22:59:00.427Z,4.40
2019-01-08T23:01:28.651Z,4.40
2019-01-08T23:03:54.823Z,4.40
2019-01-08T23:06:21.058Z,4.40
2019-01-08T23:08:47.240Z,4.30
2019-01-08T23:11:13.710Z,4.30
2019-01-08T23:13:39.890Z,4.30
2019-01-08T23:16:06.126Z,4.30
2019-01-08T23:18:32.433Z,4.30
2019-01-08T23:20:58.660Z,4.30
2019-01-08T23:23:24.889Z,4.30
2019-01-08T23:25:51.641Z,4.30
2019-01-08T23:28:17.807Z,4.30
2019-01-08T23:30:44.881Z,4.30
2019-01-08T23:33:11.165Z,4.20
2019-01-08T23:35:37.401Z,4.20
2019-01-08T23:38:03.600Z,4.20
2019-01-08T23:40:29.831Z,4.20
2019-01-08T23:42:56.017Z,4.20
2019-01-08T23:45:22.250Z,4.20
2019-01-08T23:47:50.359Z,4.20
2019-01-08T23:50:16.612Z,4.20
2019-01-08T23:52:53.897Z,4.20
2019-01-08T23:55:22.215Z,4.20
2019-01-08T23:57:48.379Z,4.20
